createdAt,value
2018-04-10T00:01:25.963Z,98841
2018-04-10T00:03:52.152Z,98842
2018-04-10T00:06:19.104Z,98845
2018-04-10T00:08:45.332Z,98839
2018-04-10T00:11:11.568Z,98830
2018-04-10T00:13:37.760Z,98837
2018-04-10T00:16:03.964Z,98845
2018-04-10T00:18:30.155Z,98837
2018-04-10T00:20:56.365Z,98835
2018-04-10T00:23:22.576Z,98843
2018-04-10T00:25:49.533Z,98841
2018-04-10T00:28:16.464Z,98844
2018-04-10T00:30:42.665Z,98847
2018-04-10T00:33:08.873Z,98852
2018-04-10T00:35:35.068Z,98853
2018-04-10T00:38:02.032Z,98860
2018-04-10T00:40:28.215Z,98849
2018-04-10T00:42:54.413Z,98846
2018-04-10T00:45:20.636Z,98847
2018-04-10T00:47:46.824Z,98840
2018-04-10T00:50:13.765Z,98846
2018-04-10T00:52:40.716Z,98839
2018-04-10T00:55:07.668Z,98826
2018-04-10T00:57:33.856Z,98828
2018-04-10T01:00:00.064Z,98828
2018-04-10T01:02:26.287Z,98826
2018-04-10T01:04:52.508Z,98825
2018-04-10T01:07:18.700Z,98832
2018-04-10T01:09:45.621Z,98829
2018-04-10T01:12:11.824Z,98839
2018-04-10T01:14:38.044Z,98834
2018-04-10T01:17:04.259Z,98835
2018-04-10T01:19:30.464Z,98834
2018-04-10T01:21:56.633Z,98837
2018-04-10T01:24:22.831Z,98836
2018-04-10T01:26:49.031Z,98842
2018-04-10T01:29:15.962Z,98842
2018-04-10T01:31:42.176Z,98846
2018-04-10T01:34:08.392Z,98840
2018-04-10T01:36:34.576Z,98846
2018-04-10T01:39:00.832Z,98838
2018-04-10T01:41:27.071Z,98837
2018-04-10T01:43:53.281Z,98826
2018-04-10T01:46:19.471Z,98832
2018-04-10T01:48:45.664Z,98833
2018-04-10T01:54:26.272Z,98834
2018-04-10T01:56:52.495Z,98826
2018-04-10T01:59:18.708Z,98820
2018-04-10T02:01:44.913Z,98832
2018-04-10T02:04:11.088Z,98818
2018-04-10T02:06:37.299Z,98825
2018-04-10T02:09:03.471Z,98832
2018-04-10T02:11:29.659Z,98830
2018-04-10T02:13:55.836Z,98828
2018-04-10T02:16:22.024Z,98818
2018-04-10T02:18:48.206Z,98824
2018-04-10T02:21:14.404Z,98828
2018-04-10T02:23:41.347Z,98835
2018-04-10T02:26:08.255Z,98825
2018-04-10T02:28:34.460Z,98825
2018-04-10T02:31:00.644Z,98831
2018-04-10T02:33:27.588Z,98829
2018-04-10T02:35:54.508Z,98829
2018-04-10T02:38:20.693Z,98835
2018-04-10T02:40:46.896Z,98831
2018-04-10T02:43:13.104Z,98839
2018-04-10T02:45:39.296Z,98836
2018-04-10T02:48:05.569Z,98832
2018-04-10T02:50:32.511Z,98825
2018-04-10T02:52:58.700Z,98832
2018-04-10T02:55:25.660Z,98824
2018-04-10T02:57:51.867Z,98830
2018-04-10T03:00:18.098Z,98828
2018-04-10T03:02:44.284Z,98823
2018-04-10T03:05:11.272Z,98832
2018-04-10T03:07:37.466Z,98832
2018-04-10T03:10:03.650Z,98831
2018-04-10T03:12:29.852Z,98839
2018-04-10T03:14:56.037Z,98831
2018-04-10T03:17:22.978Z,98838
2018-04-10T03:19:49.924Z,98836
2018-04-10T03:22:16.839Z,98832
2018-04-10T03:24:43.036Z,98840
2018-04-10T03:27:09.240Z,98842
2018-04-10T03:29:35.485Z,98841
2018-04-10T03:32:01.668Z,98843
2018-04-10T03:34:27.878Z,98830
2018-04-10T03:36:54.085Z,98826
2018-04-10T03:39:20.297Z,98823
2018-04-10T03:41:46.525Z,98821
2018-04-10T03:44:12.720Z,98831
2018-04-10T03:46:39.678Z,98824
2018-04-10T03:49:06.611Z,98823
2018-04-10T03:51:33.612Z,98825
2018-04-10T03:53:59.804Z,98831
2018-04-10T03:56:26.025Z,98817
2018-04-10T03:58:52.959Z,98823
2018-04-10T04:01:19.867Z,98821
2018-04-10T04:03:46.081Z,98826
2018-04-10T04:06:12.287Z,98820
2018-04-10T04:08:38.505Z,98823
2018-04-10T04:11:04.704Z,98815
2018-04-10T04:13:30.931Z,98818
2018-04-10T04:15:57.097Z,98827
2018-04-10T04:18:42.052Z,98828
2018-04-10T04:24:17.521Z,98824
2018-04-10T04:26:44.364Z,98824
2018-04-10T04:29:11.244Z,98820
2018-04-10T04:31:37.425Z,98820
2018-04-10T04:34:04.389Z,98819
2018-04-10T04:36:30.596Z,98825
2018-04-10T04:38:57.564Z,98826
2018-04-10T04:41:23.780Z,98822
2018-04-10T04:43:50.748Z,98826
2018-04-10T04:46:16.944Z,98823
2018-04-10T04:48:43.888Z,98824
2018-04-10T04:51:10.829Z,98826
2018-04-10T04:53:37.788Z,98833
2018-04-10T04:56:04.716Z,98833
2018-04-10T04:58:30.968Z,98840
2018-04-10T05:00:57.164Z,98837
2018-04-10T05:03:23.344Z,98846
2018-04-10T05:05:49.501Z,98848
2018-04-10T05:08:15.692Z,98844
2018-04-10T05:10:41.908Z,98855
2018-04-10T05:13:08.100Z,98863
2018-04-10T05:15:34.261Z,98865
2018-04-10T05:18:00.460Z,98874
2018-04-10T05:20:26.649Z,98862
2018-04-10T05:22:52.832Z,98874
2018-04-10T05:25:19.759Z,98870
2018-04-10T05:27:45.941Z,98876
2018-04-10T05:30:12.139Z,98877
2018-04-10T05:32:38.338Z,98876
2018-04-10T05:35:04.521Z,98877
2018-04-10T05:37:30.722Z,98885
2018-04-10T05:39:56.935Z,98885
2018-04-10T05:42:23.893Z,98873
2018-04-10T05:44:50.812Z,98883
2018-04-10T05:47:16.988Z,98881
2018-04-10T05:49:43.171Z,98879
2018-04-10T05:52:09.390Z,98880
2018-04-10T05:54:35.604Z,98874
2018-04-10T05:57:01.807Z,98871
2018-04-10T05:59:27.980Z,98886
2018-04-10T06:01:54.172Z,98881
2018-04-10T06:04:20.315Z,98873
2018-04-10T06:06:46.528Z,98869
2018-04-10T06:09:12.712Z,98872
2018-04-10T06:11:39.648Z,98879
2018-04-10T06:14:06.580Z,98880
2018-04-10T06:16:32.774Z,98870
2018-04-10T06:18:58.948Z,98876
2018-04-10T06:21:25.937Z,98882
2018-04-10T06:23:52.109Z,98897
2018-04-10T06:26:18.320Z,98891
2018-04-10T06:28:44.512Z,98895
2018-04-10T06:31:10.696Z,98894
2018-04-10T06:33:36.889Z,98895
2018-04-10T06:36:03.145Z,98904
2018-04-10T06:38:30.097Z,98898
2018-04-10T06:40:56.279Z,98891
2018-04-10T06:43:22.476Z,98891
2018-04-10T06:45:49.421Z,98892
2018-04-10T06:48:16.365Z,98897
2018-04-10T06:50:43.320Z,98892
2018-04-10T06:53:10.261Z,98904
2018-04-10T06:55:36.489Z,98905
2018-04-10T06:58:02.669Z,98908
2018-04-10T07:00:28.859Z,98905
2018-04-10T07:02:55.053Z,98901
2018-04-10T07:05:21.260Z,98893
2018-04-10T07:07:47.455Z,98897
2018-04-10T07:10:13.654Z,98900
2018-04-10T07:12:40.600Z,98904
2018-04-10T07:15:07.549Z,98914
2018-04-10T07:17:34.476Z,98911
2018-04-10T07:20:00.692Z,98908
2018-04-10T07:22:26.909Z,98907
2018-04-10T07:24:53.107Z,98911
2018-04-10T07:27:19.372Z,98911
2018-04-10T07:29:45.564Z,98914
2018-04-10T07:32:11.772Z,98910
2018-04-10T07:34:37.976Z,98909
2018-04-10T07:37:04.956Z,98921
2018-04-10T07:39:31.168Z,98910
2018-04-10T07:41:58.125Z,98920
2018-04-10T07:44:24.324Z,98918
2018-04-10T07:46:51.263Z,98922
2018-04-10T07:49:17.501Z,98918
2018-04-10T07:51:44.464Z,98919
2018-04-10T07:54:10.669Z,98926
2018-04-10T07:56:37.631Z,98919
2018-04-10T07:59:04.569Z,98914
2018-04-10T08:01:31.525Z,98920
2018-04-10T08:03:57.712Z,98932
2018-04-10T08:06:23.944Z,98932
2018-04-10T08:08:50.136Z,98931
2018-04-10T08:11:16.334Z,98935
2018-04-10T08:13:43.277Z,98940
2018-04-10T08:16:10.215Z,98937
2018-04-10T08:18:37.151Z,98954
2018-04-10T08:21:03.353Z,98949
2018-04-10T08:23:29.580Z,98951
2018-04-10T08:26:15.705Z,98941
2018-04-10T08:28:42.644Z,98945
2018-04-10T08:31:08.817Z,98947
2018-04-10T08:33:39.844Z,98946
2018-04-10T08:42:31.152Z,98941
2018-04-10T08:45:06.402Z,98940
2018-04-10T08:47:32.613Z,98933
2018-04-10T08:49:59.545Z,98924
2018-04-10T08:52:25.760Z,98930
2018-04-10T08:55:21.568Z,98933
2018-04-10T08:58:14.988Z,98923
2018-04-10T09:00:41.208Z,98926
2018-04-10T09:03:07.413Z,98939
2018-04-10T09:05:35.685Z,98947
2018-04-10T09:08:01.860Z,98949
2018-04-10T09:10:58.977Z,98955
2018-04-10T09:13:25.196Z,98967
2018-04-10T09:15:51.381Z,98964
2018-04-10T09:18:18.316Z,98961
2018-04-10T09:20:44.965Z,98963
2018-04-10T09:23:11.301Z,98953
2018-04-10T09:25:37.641Z,98965
2018-04-10T09:28:03.865Z,98967
2018-04-10T09:33:33.597Z,98980
2018-04-10T09:35:59.824Z,98977
2018-04-10T09:38:26.764Z,98978
2018-04-10T09:40:53.696Z,98984
2018-04-10T09:43:19.903Z,98983
2018-04-10T09:45:46.132Z,98996
2018-04-10T09:48:12.337Z,98988
2018-04-10T09:50:38.536Z,98997
2018-04-10T09:53:04.740Z,99006
2018-04-10T09:55:31.673Z,99007
2018-04-10T09:57:57.864Z,99006
2018-04-10T10:00:30.171Z,99003
2018-04-10T10:02:56.360Z,99007
2018-04-10T10:05:22.529Z,99004
2018-04-10T10:07:48.763Z,99016
2018-04-10T10:10:15.716Z,99004
2018-04-10T10:12:42.693Z,98999
2018-04-10T10:15:08.873Z,99005
2018-04-10T10:17:35.085Z,98989
2018-04-10T10:20:01.256Z,99007
2018-04-10T10:22:28.200Z,98996
2018-04-10T10:24:55.144Z,99005
2018-04-10T10:27:22.084Z,99006
2018-04-10T10:29:49.029Z,99006
2018-04-10T10:32:15.963Z,99010
2018-04-10T10:34:42.152Z,99012
2018-04-10T10:37:08.312Z,99017
2018-04-10T10:39:34.498Z,99025
2018-04-10T10:42:00.698Z,99021
2018-04-10T10:44:26.890Z,98999
2018-04-10T10:46:53.053Z,99007
2018-04-10T10:49:19.252Z,99013
2018-04-10T10:51:45.420Z,99012
2018-04-10T10:54:11.601Z,99007
2018-04-10T10:56:37.828Z,99011
2018-04-10T10:59:04.032Z,99008
2018-04-10T11:01:30.242Z,99013
2018-04-10T11:03:56.441Z,99020
2018-04-10T11:06:23.379Z,99011
2018-04-10T11:08:50.292Z,99007
2018-04-10T11:11:16.471Z,99012
2018-04-10T11:13:43.365Z,99009
2018-04-10T11:16:09.472Z,99007
2018-04-10T11:18:35.553Z,99010
2018-04-10T11:21:01.657Z,99007
2018-04-10T11:23:27.752Z,99004
2018-04-10T11:25:53.848Z,99014
2018-04-10T11:28:20.662Z,99015
2018-04-10T11:30:46.752Z,99010
2018-04-10T11:33:12.840Z,99007
2018-04-10T11:35:39.672Z,99014
2018-04-10T11:38:05.745Z,99011
2018-04-10T11:40:31.831Z,99016
2018-04-10T11:42:58.660Z,99009
2018-04-10T11:45:24.759Z,99009
2018-04-10T11:47:50.847Z,99010
2018-04-10T11:50:16.936Z,99018
2018-04-10T11:52:43.031Z,99024
2018-04-10T11:55:09.114Z,99017
2018-04-10T11:57:35.934Z,99019
2018-04-10T12:00:02.028Z,99010
2018-04-10T12:02:28.119Z,99013
2018-04-10T12:04:54.198Z,99017
2018-04-10T12:07:20.280Z,99017
2018-04-10T12:09:46.376Z,99012
2018-04-10T12:12:13.199Z,99009
2018-04-10T12:14:39.282Z,99011
2018-04-10T12:17:05.378Z,99013
2018-04-10T12:19:32.198Z,99011
2018-04-10T12:21:58.284Z,99017
2018-04-10T12:24:24.367Z,99012
2018-04-10T12:26:51.198Z,99009
2018-04-10T12:29:18.016Z,99008
2018-04-10T12:31:44.100Z,99000
2018-04-10T12:34:10.178Z,99009
2018-04-10T12:36:36.276Z,99008
2018-04-10T12:39:02.351Z,99004
2018-04-10T12:41:29.179Z,99007
2018-04-10T12:43:55.284Z,99003
2018-04-10T12:46:21.364Z,99004
2018-04-10T12:48:47.443Z,99008
2018-04-10T12:51:13.536Z,98999
2018-04-10T12:53:39.619Z,99003
2018-04-10T12:56:06.445Z,99006
2018-04-10T12:58:32.515Z,98997
2018-04-10T13:00:58.607Z,99001
2018-04-10T13:03:25.428Z,98992
2018-04-10T13:05:52.269Z,98995
2018-04-10T13:08:18.351Z,98995
2018-04-10T13:10:44.431Z,99000
2018-04-10T13:13:11.269Z,98995
2018-04-10T13:15:37.366Z,98988
2018-04-10T13:18:03.435Z,98987
2018-04-10T13:20:30.283Z,98999
2018-04-10T13:22:57.104Z,98988
2018-04-10T13:25:23.195Z,98996
2018-04-10T13:27:49.283Z,99003
2018-04-10T13:30:16.112Z,98994
2018-04-10T13:32:42.944Z,98993
2018-04-10T13:35:09.019Z,98993
2018-04-10T13:37:35.104Z,98990
2018-04-10T13:40:01.920Z,98988
2018-04-10T13:42:28.020Z,98992
2018-04-10T13:44:54.107Z,98987
2018-04-10T13:47:20.922Z,98985
2018-04-10T13:49:46.996Z,98986
2018-04-10T13:52:13.070Z,98975
2018-04-10T13:54:39.889Z,98985
2018-04-10T13:57:05.972Z,98981
2018-04-10T13:59:32.858Z,98974
2018-04-10T14:01:59.648Z,98975
2018-04-10T14:04:26.485Z,98983
2018-04-10T14:06:52.574Z,98980
2018-04-10T14:09:18.664Z,98975
2018-04-10T14:11:44.756Z,98980
2018-04-10T14:14:10.880Z,98970
2018-04-10T14:16:36.938Z,98978
2018-04-10T14:19:03.020Z,98965
2018-04-10T14:21:29.119Z,98959
2018-04-10T14:23:55.199Z,98966
2018-04-10T14:26:22.021Z,98954
2018-04-10T14:28:48.108Z,98965
2018-04-10T14:31:14.182Z,98957
2018-04-10T14:33:40.272Z,98962
2018-04-10T14:36:06.345Z,98955
2018-04-10T14:38:33.172Z,98967
2018-04-10T14:40:59.252Z,98972
2018-04-10T14:43:25.335Z,98968
2018-04-10T14:45:52.168Z,98967
2018-04-10T14:48:19.012Z,98969
2018-04-10T14:50:45.831Z,98967
2018-04-10T14:53:11.932Z,98967
2018-04-10T14:55:38.021Z,98969
2018-04-10T14:58:04.847Z,98976
2018-04-10T15:00:30.928Z,98974
2018-04-10T15:02:57.019Z,98971
2018-04-10T15:05:23.115Z,98965
2018-04-10T15:07:49.208Z,98970
2018-04-10T15:10:15.291Z,98967
2018-04-10T15:12:42.116Z,98964
2018-04-10T15:15:08.184Z,98961
2018-04-10T15:17:34.276Z,98958
2018-04-10T15:20:01.098Z,98962
2018-04-10T15:22:28.671Z,98959
2018-04-10T15:24:55.491Z,98964
2018-04-10T15:27:21.600Z,98960
2018-04-10T15:29:47.691Z,98964
2018-04-10T15:32:13.772Z,98959
2018-04-10T15:34:39.859Z,98956
2018-04-10T15:37:05.945Z,98953
2018-04-10T15:39:32.775Z,98960
2018-04-10T15:41:58.847Z,98959
2018-04-10T15:44:24.943Z,98968
2018-04-10T15:46:51.755Z,98978
2018-04-10T15:49:17.837Z,98979
2018-04-10T15:51:43.923Z,98974
2018-04-10T15:54:10.751Z,98974
2018-04-10T15:56:36.836Z,98976
2018-04-10T15:59:02.923Z,98978
2018-04-10T16:01:29.747Z,98975
2018-04-10T16:03:55.840Z,98979
2018-04-10T16:06:21.910Z,98977
2018-04-10T16:08:48.021Z,98983
2018-04-10T16:11:14.841Z,98978
2018-04-10T16:13:40.927Z,98985
2018-04-10T16:16:07.015Z,98981
2018-04-10T16:18:33.108Z,98988
2018-04-10T16:20:59.190Z,98982
2018-04-10T16:23:26.019Z,98978
2018-04-10T16:25:52.099Z,98975
2018-04-10T16:28:18.183Z,98978
2018-04-10T16:30:45.011Z,98968
2018-04-10T16:33:11.079Z,98974
2018-04-10T16:35:37.181Z,98978
2018-04-10T16:38:04.000Z,98981
2018-04-10T16:40:30.085Z,98974
2018-04-10T16:42:56.211Z,98975
2018-04-10T16:45:22.299Z,98983
2018-04-10T16:47:49.119Z,98983
2018-04-10T16:50:15.207Z,98983
2018-04-10T16:52:41.290Z,98992
2018-04-10T16:55:08.124Z,98982
2018-04-10T16:57:34.947Z,98992
2018-04-10T17:00:01.027Z,98991
2018-04-10T17:02:27.116Z,98988
2018-04-10T17:04:53.201Z,98994
2018-04-10T17:07:19.274Z,98999
2018-04-10T17:09:46.103Z,98995
2018-04-10T17:12:12.176Z,99003
2018-04-10T17:14:38.267Z,98996
2018-04-10T17:17:05.071Z,99009
2018-04-10T17:19:31.168Z,99012
2018-04-10T17:21:57.243Z,99011
2018-04-10T17:24:23.327Z,99018
2018-04-10T17:26:49.407Z,99012
2018-04-10T17:29:16.251Z,99013
2018-04-10T17:31:43.079Z,99010
2018-04-10T17:34:09.167Z,99015
2018-04-10T17:36:35.240Z,99024
2018-04-10T17:39:02.051Z,99021
2018-04-10T17:41:28.152Z,99018
2018-04-10T17:43:54.243Z,99022
2018-04-10T17:46:21.085Z,99027
2018-04-10T17:48:47.179Z,99025
2018-04-10T17:51:13.263Z,99031
2018-04-10T17:53:39.350Z,99031
2018-04-10T17:56:05.437Z,99033
2018-04-10T17:58:51.674Z,99034
2018-04-10T18:01:17.768Z,99037
2018-04-10T18:03:43.939Z,99032
2018-04-10T18:06:14.340Z,99042
2018-04-10T18:08:51.887Z,99038
2018-04-10T18:11:42.350Z,99041
2018-04-10T18:14:09.179Z,99058
2018-04-10T18:16:35.267Z,99051
2018-04-10T18:19:01.363Z,99055
2018-04-10T18:21:38.358Z,99057
2018-04-10T18:24:21.886Z,99064
2018-04-10T18:26:47.970Z,99071
2018-04-10T18:29:14.054Z,99072
2018-04-10T18:31:40.139Z,99076
2018-04-10T18:34:06.958Z,99084
2018-04-10T18:36:33.052Z,99088
2018-04-10T18:39:05.613Z,99094
2018-04-10T18:41:31.765Z,99094
2018-04-10T18:43:58.539Z,99097
2018-04-10T18:46:31.115Z,99100
2018-04-10T18:49:00.592Z,99106
2018-04-10T18:51:26.692Z,99114
2018-04-10T18:53:56.570Z,99116
2018-04-10T18:56:23.402Z,99130
2018-04-10T18:58:49.475Z,99122
2018-04-10T19:01:18.648Z,99123
2018-04-10T19:03:45.466Z,99129
2018-04-10T19:06:11.547Z,99130
2018-04-10T19:08:46.776Z,99135
2018-04-10T19:11:12.868Z,99145
2018-04-10T19:13:47.727Z,99146
2018-04-10T19:16:13.816Z,99142
2018-04-10T19:18:39.899Z,99149
2018-04-10T19:21:05.982Z,99153
2018-04-10T19:23:32.812Z,99147
2018-04-10T19:25:59.638Z,99143
2018-04-10T19:28:25.726Z,99140
2018-04-10T19:30:51.810Z,99148
2018-04-10T19:33:18.640Z,99145
2018-04-10T19:35:44.718Z,99159
2018-04-10T19:38:10.801Z,99163
2018-04-10T19:40:37.627Z,99153
2018-04-10T19:43:03.711Z,99157
2018-04-10T19:45:29.845Z,99161
2018-04-10T19:47:55.904Z,99161
2018-04-10T19:50:21.979Z,99160
2018-04-10T19:52:48.092Z,99164
2018-04-10T19:55:14.163Z,99176
2018-04-10T19:57:40.251Z,99170
2018-04-10T20:00:06.333Z,99175
2018-04-10T20:02:32.423Z,99173
2018-04-10T20:04:58.506Z,99179
2018-04-10T20:07:25.335Z,99181
2018-04-10T20:09:51.420Z,99167
2018-04-10T20:12:44.467Z,99177
2018-04-10T20:15:10.551Z,99172
2018-04-10T20:17:37.379Z,99171
2018-04-10T20:20:03.456Z,99166
2018-04-10T20:22:29.543Z,99170
2018-04-10T20:24:56.367Z,99164
2018-04-10T20:27:22.480Z,99171
2018-04-10T20:29:48.550Z,99168
2018-04-10T20:32:14.639Z,99175
2018-04-10T20:34:40.715Z,99174
2018-04-10T20:37:06.798Z,99170
2018-04-10T20:39:32.876Z,99174
2018-04-10T20:41:58.950Z,99170
2018-04-10T20:44:25.055Z,99168
2018-04-10T20:46:51.135Z,99165
2018-04-10T20:49:17.236Z,99168
2018-04-10T20:51:43.334Z,99178
2018-04-10T20:54:15.136Z,99180
2018-04-10T20:56:45.659Z,99174
2018-04-10T20:59:12.493Z,99173
2018-04-10T21:01:39.316Z,99181
2018-04-10T21:04:06.139Z,99182
2018-04-10T21:06:38.683Z,99186
2018-04-10T21:09:15.371Z,99184
2018-04-10T21:12:08.848Z,99193
2018-04-10T21:14:34.934Z,99187
2018-04-10T21:17:01.750Z,99190
2018-04-10T21:19:27.836Z,99193
2018-04-10T21:21:53.912Z,99195
2018-04-10T21:24:22.739Z,99199
2018-04-10T21:27:02.219Z,99199
2018-04-10T21:29:39.984Z,99206
2018-04-10T21:32:37.551Z,99211
2018-04-10T21:35:10.323Z,99212
2018-04-10T21:37:57.720Z,99206
2018-04-10T21:40:24.539Z,99211
2018-04-10T21:43:02.995Z,99208
2018-04-10T21:45:29.083Z,99208
2018-04-10T21:48:09.735Z,99211
2018-04-10T21:50:39.387Z,99214
2018-04-10T21:53:06.211Z,99210
2018-04-10T21:55:32.287Z,99214
2018-04-10T21:57:58.367Z,99211
2018-04-10T22:00:25.204Z,99212
2018-04-10T22:02:51.279Z,99209
2018-04-10T22:05:17.370Z,99214
2018-04-10T22:07:43.464Z,99214
2018-04-10T22:10:09.542Z,99219
2018-04-10T22:12:35.615Z,99219
2018-04-10T22:15:01.706Z,99218
2018-04-10T22:17:27.788Z,99210
2018-04-10T22:19:54.620Z,99217
2018-04-10T22:22:20.707Z,99222
2018-04-10T22:24:46.795Z,99222
2018-04-10T22:27:12.867Z,99224
2018-04-10T22:29:38.951Z,99225
2018-04-10T22:32:05.028Z,99228
2018-04-10T22:34:32.575Z,99220
2018-04-10T22:36:58.660Z,99226
2018-04-10T22:39:24.748Z,99223
2018-04-10T22:41:51.573Z,99226
2018-04-10T22:44:18.420Z,99221
2018-04-10T22:46:45.243Z,99225
2018-04-10T22:49:11.335Z,99223
2018-04-10T22:51:37.432Z,99230
2018-04-10T22:54:03.526Z,99217
2018-04-10T22:56:29.604Z,99230
2018-04-10T22:58:55.697Z,99217
2018-04-10T23:01:22.519Z,99220
2018-04-10T23:03:48.622Z,99219
2018-04-10T23:06:14.739Z,99228
2018-04-10T23:08:40.846Z,99216
2018-04-10T23:11:06.971Z,99214
2018-04-10T23:13:33.078Z,99222
2018-04-10T23:15:59.937Z,99218
2018-04-10T23:18:26.786Z,99218
2018-04-10T23:20:52.902Z,99224
2018-04-10T23:23:19.754Z,99222
2018-04-10T23:25:46.606Z,99227
2018-04-10T23:28:13.454Z,99224
2018-04-10T23:30:39.570Z,99223
2018-04-10T23:33:06.423Z,99216
2018-04-10T23:35:33.278Z,99223
2018-04-10T23:37:59.381Z,99222
2018-04-10T23:40:26.241Z,99212
2018-04-10T23:42:52.357Z,99209
2018-04-10T23:45:19.222Z,99213
2018-04-10T23:47:45.329Z,99205
2018-04-10T23:50:11.434Z,99203
2018-04-10T23:52:37.541Z,99207
2018-04-10T23:55:03.655Z,99200
2018-04-10T23:57:29.758Z,99207
2018-04-10T23:59:55.870Z,99215
